LXJ171 KLAS-KLAX
Flight info
| Callsign | LXJ171 |
|---|---|
| Flight time | 0h 35m |
| Altitude | 24000 |
| Route | RADYR2 BLAQQ SHTNR ANJLL4 |
| Aircraft | CL60/M-SBDE1E2E3FGHIJ1J4J5J7M3RWXYZ/LB1V1D1 |
Departure
| Time | 2026-05-06 23:47 |
|---|---|
| Airport | Harry Reid International Airport (KLAS) |
Arrival
| Time | 2026-05-07 00:23 |
|---|---|
| Airport | Los Angeles International Airport (KLAX) |
| Time | Latitude | Longitude | Altitude | Speed | Heading |
|---|---|---|---|---|---|
| 2026-05-06 23:28 | 36.08091 | -115.17059 | 2183 ft | 0 kts | 90° |
| 2026-05-06 23:41 | 36.08091 | -115.17056 | 2183 ft | 4 kts | 90° |
| 2026-05-06 23:42 | 36.08091 | -115.17041 | 2182 ft | 0 kts | 91° |
| 2026-05-06 23:43 | 36.08095 | -115.17014 | 2182 ft | 5 kts | 65° |
| 2026-05-06 23:43 | 36.08131 | -115.16943 | 2180 ft | 13 kts | 47° |
| 2026-05-06 23:43 | 36.08237 | -115.16873 | 2176 ft | 20 kts | 26° |
| 2026-05-06 23:44 | 36.08389 | -115.16786 | 2171 ft | 27 kts | 25° |
| 2026-05-06 23:44 | 36.08583 | -115.16676 | 2163 ft | 33 kts | 25° |
| 2026-05-06 23:44 | 36.08812 | -115.16544 | 2154 ft | 39 kts | 26° |
| 2026-05-06 23:44 | 36.09025 | -115.16422 | 2145 ft | 30 kts | 23° |
| 2026-05-06 23:45 | 36.09238 | -115.16298 | 2134 ft | 36 kts | 26° |
| 2026-05-06 23:45 | 36.09466 | -115.16167 | 2124 ft | 32 kts | 25° |
| 2026-05-06 23:45 | 36.09666 | -115.16055 | 2116 ft | 24 kts | 24° |
| 2026-05-06 23:45 | 36.09831 | -115.15962 | 2113 ft | 23 kts | 25° |
| 2026-05-06 23:46 | 36.09946 | -115.15885 | 2108 ft | 18 kts | 57° |
| 2026-05-06 23:46 | 36.09982 | -115.15730 | 2103 ft | 17 kts | 105° |
| 2026-05-06 23:46 | 36.09932 | -115.15665 | 2102 ft | 0 kts | 205° |
| 2026-05-06 23:47 | 36.09925 | -115.15668 | 2102 ft | 13 kts | 204° |
| 2026-05-06 23:47 | 36.09441 | -115.15945 | 2118 ft | 134 kts | 205° |
| 2026-05-06 23:47 | 36.08393 | -115.16539 | 2585 ft | 186 kts | 204° |
| 2026-05-06 23:47 | 36.07152 | -115.17230 | 3571 ft | 212 kts | 202° |
| 2026-05-06 23:48 | 36.05745 | -115.17994 | 4651 ft | 237 kts | 203° |
| 2026-05-06 23:48 | 36.04128 | -115.18876 | 5563 ft | 272 kts | 204° |
| 2026-05-06 23:48 | 36.02348 | -115.19850 | 6635 ft | 290 kts | 204° |
| 2026-05-06 23:48 | 36.00423 | -115.20889 | 7122 ft | 320 kts | 202° |
| 2026-05-06 23:49 | 35.98301 | -115.21878 | 7444 ft | 329 kts | 200° |
| 2026-05-06 23:49 | 35.96159 | -115.22846 | 8532 ft | 326 kts | 201° |
| 2026-05-06 23:49 | 35.94081 | -115.23786 | 9941 ft | 318 kts | 201° |
| 2026-05-06 23:49 | 35.92020 | -115.24719 | 11108 ft | 320 kts | 200° |
| 2026-05-06 23:50 | 35.89912 | -115.25673 | 12183 ft | 322 kts | 200° |
| 2026-05-06 23:50 | 35.85582 | -115.27635 | 13911 ft | 351 kts | 201° |
| 2026-05-06 23:50 | 35.83167 | -115.28730 | 14381 ft | 382 kts | 200° |
| 2026-05-06 23:51 | 35.80612 | -115.29886 | 15133 ft | 399 kts | 200° |
| 2026-05-06 23:51 | 35.77982 | -115.31075 | 16112 ft | 408 kts | 200° |
| 2026-05-06 23:51 | 35.75304 | -115.32285 | 17110 ft | 414 kts | 200° |
| 2026-05-06 23:51 | 35.72575 | -115.33518 | 18093 ft | 420 kts | 199° |
| 2026-05-06 23:52 | 35.69776 | -115.34781 | 18758 ft | 430 kts | 199° |
| 2026-05-06 23:52 | 35.66945 | -115.36057 | 19052 ft | 442 kts | 199° |
| 2026-05-06 23:52 | 35.64000 | -115.37383 | 19537 ft | 456 kts | 199° |
| 2026-05-06 23:52 | 35.60963 | -115.38438 | 20368 ft | 457 kts | 188° |
| 2026-05-06 23:53 | 35.57781 | -115.38583 | 21227 ft | 455 kts | 175° |
| 2026-05-06 23:53 | 35.54591 | -115.38345 | 21995 ft | 459 kts | 174° |
| 2026-05-06 23:53 | 35.51419 | -115.38111 | 22700 ft | 463 kts | 174° |
| 2026-05-06 23:53 | 35.48143 | -115.37875 | 23361 ft | 468 kts | 175° |
| 2026-05-06 23:54 | 35.44856 | -115.38051 | 23915 ft | 477 kts | 187° |
| 2026-05-06 23:54 | 35.41645 | -115.39188 | 24079 ft | 487 kts | 203° |
| 2026-05-06 23:54 | 35.38588 | -115.41090 | 24058 ft | 486 kts | 207° |
| 2026-05-06 23:54 | 35.35579 | -115.43025 | 24075 ft | 486 kts | 207° |
| 2026-05-06 23:55 | 35.32557 | -115.44959 | 24083 ft | 487 kts | 207° |
| 2026-05-06 23:55 | 35.29544 | -115.46886 | 24085 ft | 489 kts | 207° |
| 2026-05-06 23:55 | 35.26525 | -115.48814 | 24083 ft | 489 kts | 207° |
| 2026-05-06 23:55 | 35.23472 | -115.50761 | 24082 ft | 490 kts | 207° |
| 2026-05-06 23:56 | 35.20428 | -115.52701 | 24077 ft | 490 kts | 207° |
| 2026-05-06 23:56 | 35.17366 | -115.54651 | 24072 ft | 490 kts | 207° |
| 2026-05-06 23:56 | 35.14341 | -115.56590 | 24066 ft | 490 kts | 209° |
| 2026-05-06 23:56 | 35.11566 | -115.58993 | 24068 ft | 489 kts | 223° |
| 2026-05-06 23:57 | 35.09181 | -115.61963 | 24038 ft | 490 kts | 227° |
| 2026-05-06 23:57 | 35.06834 | -115.64977 | 24037 ft | 490 kts | 227° |
| 2026-05-06 23:57 | 35.04459 | -115.68013 | 24024 ft | 489 kts | 227° |
| 2026-05-06 23:57 | 35.02127 | -115.70991 | 24016 ft | 489 kts | 227° |
| 2026-05-06 23:58 | 34.99738 | -115.74040 | 24005 ft | 490 kts | 227° |
| 2026-05-06 23:58 | 34.97379 | -115.77046 | 24011 ft | 490 kts | 227° |
| 2026-05-06 23:58 | 34.94990 | -115.80090 | 24020 ft | 490 kts | 227° |
| 2026-05-06 23:58 | 34.92638 | -115.83083 | 24030 ft | 491 kts | 227° |
| 2026-05-06 23:59 | 34.90252 | -115.86117 | 24032 ft | 491 kts | 227° |
| 2026-05-06 23:59 | 34.87860 | -115.89156 | 24038 ft | 491 kts | 227° |
| 2026-05-06 23:59 | 34.85503 | -115.92147 | 24032 ft | 490 kts | 227° |
| 2026-05-06 23:59 | 34.83140 | -115.95143 | 24035 ft | 489 kts | 227° |
| 2026-05-07 00:00 | 34.80750 | -115.98171 | 24033 ft | 489 kts | 227° |
| 2026-05-07 00:00 | 34.78376 | -116.01176 | 24024 ft | 490 kts | 227° |
| 2026-05-07 00:00 | 34.76031 | -116.04153 | 24026 ft | 490 kts | 227° |
| 2026-05-07 00:00 | 34.73662 | -116.07174 | 24033 ft | 490 kts | 227° |
| 2026-05-07 00:01 | 34.71283 | -116.10204 | 24037 ft | 491 kts | 227° |
| 2026-05-07 00:01 | 34.68920 | -116.13213 | 24042 ft | 491 kts | 227° |
| 2026-05-07 00:01 | 34.66557 | -116.16218 | 24054 ft | 491 kts | 227° |
| 2026-05-07 00:01 | 34.64199 | -116.19213 | 24060 ft | 492 kts | 227° |
| 2026-05-07 00:02 | 34.61871 | -116.22169 | 24063 ft | 492 kts | 227° |
| 2026-05-07 00:02 | 34.59431 | -116.25265 | 24078 ft | 491 kts | 227° |
| 2026-05-07 00:02 | 34.57057 | -116.28272 | 24080 ft | 490 kts | 227° |
| 2026-05-07 00:02 | 34.54701 | -116.31255 | 24087 ft | 490 kts | 227° |
| 2026-05-07 00:03 | 34.52345 | -116.34235 | 24081 ft | 490 kts | 227° |
| 2026-05-07 00:03 | 34.49972 | -116.37233 | 24083 ft | 490 kts | 227° |
| 2026-05-07 00:03 | 34.47610 | -116.40216 | 24085 ft | 490 kts | 227° |
| 2026-05-07 00:03 | 34.45246 | -116.43198 | 24083 ft | 490 kts | 227° |
| 2026-05-07 00:04 | 34.42872 | -116.46220 | 24103 ft | 489 kts | 229° |
| 2026-05-07 00:04 | 34.40922 | -116.49562 | 24112 ft | 487 kts | 243° |
| 2026-05-07 00:04 | 34.39394 | -116.53236 | 24095 ft | 487 kts | 246° |
| 2026-05-07 00:04 | 34.37883 | -116.56916 | 24125 ft | 486 kts | 246° |
| 2026-05-07 00:05 | 34.36366 | -116.60597 | 24134 ft | 486 kts | 246° |
| 2026-05-07 00:05 | 34.34859 | -116.64249 | 24139 ft | 486 kts | 246° |
| 2026-05-07 00:05 | 34.33335 | -116.67950 | 24150 ft | 486 kts | 245° |
| 2026-05-07 00:05 | 34.31867 | -116.71590 | 24167 ft | 483 kts | 246° |
| 2026-05-07 00:06 | 34.30394 | -116.75257 | 24176 ft | 481 kts | 246° |
| 2026-05-07 00:06 | 34.28914 | -116.78934 | 24189 ft | 480 kts | 246° |
| 2026-05-07 00:06 | 34.27457 | -116.82552 | 24192 ft | 479 kts | 246° |
| 2026-05-07 00:06 | 34.25987 | -116.86200 | 24191 ft | 479 kts | 246° |
| 2026-05-07 00:07 | 34.24524 | -116.89826 | 24038 ft | 482 kts | 246° |
| 2026-05-07 00:07 | 34.23029 | -116.93525 | 23504 ft | 482 kts | 246° |
| 2026-05-07 00:07 | 34.21576 | -116.97118 | 22901 ft | 475 kts | 246° |
| 2026-05-07 00:07 | 34.20377 | -117.00818 | 22286 ft | 465 kts | 255° |
| 2026-05-07 00:08 | 34.19389 | -117.04513 | 21664 ft | 459 kts | 255° |
| 2026-05-07 00:08 | 34.18413 | -117.08139 | 21054 ft | 456 kts | 255° |
| 2026-05-07 00:08 | 34.17435 | -117.11762 | 20441 ft | 452 kts | 255° |
| 2026-05-07 00:08 | 34.16454 | -117.15389 | 19826 ft | 449 kts | 255° |
| 2026-05-07 00:09 | 34.15482 | -117.18941 | 19223 ft | 446 kts | 255° |
| 2026-05-07 00:09 | 34.14509 | -117.22490 | 18624 ft | 442 kts | 255° |
| 2026-05-07 00:09 | 34.13554 | -117.25967 | 18032 ft | 439 kts | 255° |
| 2026-05-07 00:09 | 34.12595 | -117.29454 | 17355 ft | 434 kts | 255° |
| 2026-05-07 00:10 | 34.11660 | -117.32842 | 16811 ft | 421 kts | 255° |
| 2026-05-07 00:10 | 34.10744 | -117.36171 | 16251 ft | 410 kts | 255° |
| 2026-05-07 00:10 | 34.09914 | -117.39428 | 15700 ft | 400 kts | 256° |
| 2026-05-07 00:10 | 34.09119 | -117.42606 | 15176 ft | 391 kts | 256° |
| 2026-05-07 00:11 | 34.08347 | -117.45687 | 14652 ft | 383 kts | 256° |
| 2026-05-07 00:11 | 34.07571 | -117.48769 | 14141 ft | 376 kts | 256° |
| 2026-05-07 00:11 | 34.06657 | -117.51704 | 13655 ft | 370 kts | 250° |
| 2026-05-07 00:11 | 34.05640 | -117.54523 | 13179 ft | 364 kts | 249° |
| 2026-05-07 00:12 | 34.04636 | -117.57305 | 12732 ft | 357 kts | 249° |
| 2026-05-07 00:12 | 34.03660 | -117.60014 | 12294 ft | 350 kts | 249° |
| 2026-05-07 00:12 | 34.02689 | -117.62705 | 11846 ft | 347 kts | 249° |
| 2026-05-07 00:12 | 34.01729 | -117.65366 | 11398 ft | 345 kts | 248° |
| 2026-05-07 00:13 | 34.00826 | -117.68002 | 10968 ft | 339 kts | 255° |
| 2026-05-07 00:13 | 34.00417 | -117.70750 | 10540 ft | 333 kts | 266° |
| 2026-05-07 00:13 | 34.00158 | -117.73526 | 10122 ft | 328 kts | 266° |
| 2026-05-07 00:13 | 33.99896 | -117.76232 | 9712 ft | 322 kts | 266° |
| 2026-05-07 00:14 | 33.99636 | -117.78893 | 9307 ft | 316 kts | 266° |
| 2026-05-07 00:14 | 33.99383 | -117.81486 | 8915 ft | 310 kts | 266° |
| 2026-05-07 00:14 | 33.99131 | -117.84070 | 8512 ft | 305 kts | 266° |
| 2026-05-07 00:14 | 33.98888 | -117.86575 | 8148 ft | 298 kts | 266° |
| 2026-05-07 00:15 | 33.98649 | -117.89024 | 7758 ft | 291 kts | 265° |
| 2026-05-07 00:15 | 33.98420 | -117.91392 | 7479 ft | 280 kts | 266° |
| 2026-05-07 00:15 | 33.98190 | -117.93714 | 7001 ft | 281 kts | 266° |
| 2026-05-07 00:15 | 33.97962 | -117.96026 | 6789 ft | 270 kts | 266° |
| 2026-05-07 00:16 | 33.97743 | -117.98277 | 6293 ft | 273 kts | 265° |
| 2026-05-07 00:16 | 33.97521 | -118.00502 | 6074 ft | 255 kts | 265° |
| 2026-05-07 00:16 | 33.97318 | -118.02556 | 5680 ft | 237 kts | 265° |
| 2026-05-07 00:16 | 33.97128 | -118.04478 | 5430 ft | 235 kts | 266° |
| 2026-05-07 00:17 | 33.96935 | -118.06433 | 5119 ft | 229 kts | 265° |
| 2026-05-07 00:17 | 33.96748 | -118.08330 | 4809 ft | 226 kts | 265° |
| 2026-05-07 00:17 | 33.96565 | -118.10166 | 4550 ft | 218 kts | 265° |
| 2026-05-07 00:17 | 33.96383 | -118.11995 | 4270 ft | 216 kts | 265° |
| 2026-05-07 00:18 | 33.96205 | -118.13783 | 3966 ft | 214 kts | 264° |
| 2026-05-07 00:18 | 33.96031 | -118.15517 | 3714 ft | 201 kts | 264° |
| 2026-05-07 00:18 | 33.95866 | -118.17158 | 3450 ft | 192 kts | 265° |
| 2026-05-07 00:18 | 33.95710 | -118.18723 | 3208 ft | 186 kts | 264° |
| 2026-05-07 00:19 | 33.95553 | -118.20293 | 2957 ft | 186 kts | 264° |
| 2026-05-07 00:19 | 33.95400 | -118.21822 | 2726 ft | 185 kts | 264° |
| 2026-05-07 00:19 | 33.95244 | -118.23383 | 2476 ft | 184 kts | 264° |
| 2026-05-07 00:19 | 33.95092 | -118.24882 | 2250 ft | 182 kts | 263° |
| 2026-05-07 00:20 | 33.94940 | -118.26392 | 1986 ft | 176 kts | 263° |
| 2026-05-07 00:20 | 33.94801 | -118.27769 | 1811 ft | 153 kts | 262° |
| 2026-05-07 00:20 | 33.94676 | -118.29010 | 1619 ft | 149 kts | 262° |
| 2026-05-07 00:20 | 33.94551 | -118.30248 | 1418 ft | 147 kts | 263° |
| 2026-05-07 00:21 | 33.94429 | -118.31449 | 1224 ft | 137 kts | 263° |
| 2026-05-07 00:21 | 33.94318 | -118.32553 | 1069 ft | 129 kts | 263° |
| 2026-05-07 00:21 | 33.94211 | -118.33592 | 890 ft | 124 kts | 262° |
| 2026-05-07 00:21 | 33.94106 | -118.34624 | 753 ft | 121 kts | 262° |
| 2026-05-07 00:22 | 33.94004 | -118.35622 | 623 ft | 121 kts | 263° |
| 2026-05-07 00:22 | 33.93906 | -118.36629 | 486 ft | 119 kts | 262° |
| 2026-05-07 00:22 | 33.93807 | -118.37615 | 306 ft | 118 kts | 261° |
| 2026-05-07 00:22 | 33.93706 | -118.38585 | 116 ft | 112 kts | 262° |
| 2026-05-07 00:23 | 33.93619 | -118.39429 | 109 ft | 84 kts | 263° |
| 2026-05-07 00:23 | 33.93574 | -118.39872 | 114 ft | 47 kts | 262° |
| 2026-05-07 00:23 | 33.93491 | -118.40173 | 119 ft | 19 kts | 243° |
| 2026-05-07 00:23 | 33.93438 | -118.40200 | 119 ft | 0 kts | 136° |
| 2026-05-07 00:24 | 33.93425 | -118.40183 | 119 ft | 4 kts | 121° |
| 2026-05-07 00:24 | 33.93425 | -118.40125 | 119 ft | 11 kts | 84° |
| 2026-05-07 00:24 | 33.93437 | -118.40003 | 116 ft | 16 kts | 83° |
| 2026-05-07 00:25 | 33.93450 | -118.39877 | 115 ft | 13 kts | 83° |
| 2026-05-07 00:25 | 33.93459 | -118.39784 | 113 ft | 11 kts | 82° |
| 2026-05-07 00:25 | 33.93469 | -118.39693 | 111 ft | 10 kts | 82° |
| 2026-05-07 00:25 | 33.93483 | -118.39580 | 110 ft | 16 kts | 83° |
| 2026-05-07 00:26 | 33.93494 | -118.39446 | 109 ft | 9 kts | 84° |
| 2026-05-07 00:26 | 33.93462 | -118.39389 | 108 ft | 9 kts | 164° |
| 2026-05-07 00:26 | 33.93432 | -118.39347 | 107 ft | 5 kts | 88° |
| 2026-05-07 00:26 | 33.93420 | -118.39315 | 107 ft | 2 kts | 166° |
| 2026-05-07 00:27 | 33.93407 | -118.39321 | 107 ft | 0 kts | 232° |
| 2026-05-07 00:27 | 33.93399 | -118.39336 | 107 ft | 2 kts | 239° |
| 2026-05-07 00:27 | 33.93386 | -118.39362 | 107 ft | 3 kts | 247° |
| 2026-05-07 00:27 | 33.93383 | -118.39415 | 108 ft | 4 kts | 272° |
| 2026-05-07 00:28 | 33.93383 | -118.39442 | 109 ft | 0 kts | 269° |